sensor_id;sensor_type;location;lat;lon;timestamp;P1;durP1;ratioP1;P2;durP2;ratioP2
28343;SDS011;15597;50.914;6.638;2022-12-11T00:01:59;25.92;;;10.00;;
28343;SDS011;15597;50.914;6.638;2022-12-11T00:04:25;34.08;;;12.15;;
28343;SDS011;15597;50.914;6.638;2022-12-11T00:06:51;35.28;;;12.75;;
28343;SDS011;15597;50.914;6.638;2022-12-11T00:09:17;39.83;;;13.40;;
28343;SDS011;15597;50.914;6.638;2022-12-11T00:11:45;23.92;;;9.65;;
28343;SDS011;15597;50.914;6.638;2022-12-11T00:14:11;30.05;;;11.63;;
28343;SDS011;15597;50.914;6.638;2022-12-11T00:16:38;25.85;;;10.40;;
28343;SDS011;15597;50.914;6.638;2022-12-11T00:19:04;40.88;;;15.10;;
28343;SDS011;15597;50.914;6.638;2022-12-11T00:21:30;24.33;;;9.85;;
28343;SDS011;15597;50.914;6.638;2022-12-11T00:23:56;33.78;;;12.45;;
28343;SDS011;15597;50.914;6.638;2022-12-11T00:26:21;25.80;;;10.00;;
28343;SDS011;15597;50.914;6.638;2022-12-11T00:28:50;24.80;;;10.18;;
28343;SDS011;15597;50.914;6.638;2022-12-11T00:31:20;26.92;;;10.55;;
28343;SDS011;15597;50.914;6.638;2022-12-11T00:33:47;43.17;;;15.13;;
28343;SDS011;15597;50.914;6.638;2022-12-11T00:36:18;41.13;;;14.25;;
28343;SDS011;15597;50.914;6.638;2022-12-11T00:38:48;23.77;;;9.60;;
28343;SDS011;15597;50.914;6.638;2022-12-11T00:41:14;38.50;;;13.77;;
28343;SDS011;15597;50.914;6.638;2022-12-11T00:43:40;25.45;;;10.13;;
28343;SDS011;15597;50.914;6.638;2022-12-11T00:46:06;30.75;;;11.65;;
28343;SDS011;15597;50.914;6.638;2022-12-11T00:48:32;35.55;;;13.10;;
28343;SDS011;15597;50.914;6.638;2022-12-11T00:50:57;26.83;;;9.65;;
28343;SDS011;15597;50.914;6.638;2022-12-11T00:53:24;42.25;;;13.80;;
28343;SDS011;15597;50.914;6.638;2022-12-11T00:55:50;25.75;;;9.98;;
28343;SDS011;15597;50.914;6.638;2022-12-11T00:58:16;24.45;;;9.55;;
28343;SDS011;15597;50.914;6.638;2022-12-11T01:00:42;25.50;;;10.57;;
28343;SDS011;15597;50.914;6.638;2022-12-11T01:03:09;36.70;;;12.85;;
28343;SDS011;15597;50.914;6.638;2022-12-11T01:05:37;27.65;;;11.43;;
28343;SDS011;15597;50.914;6.638;2022-12-11T01:08:03;36.30;;;12.57;;
28343;SDS011;15597;50.914;6.638;2022-12-11T01:10:28;25.52;;;9.88;;
28343;SDS011;15597;50.914;6.638;2022-12-11T01:12:55;28.90;;;10.93;;
28343;SDS011;15597;50.914;6.638;2022-12-11T01:15:24;42.53;;;12.27;;
28343;SDS011;15597;50.914;6.638;2022-12-11T01:17:51;41.33;;;13.32;;
28343;SDS011;15597;50.914;6.638;2022-12-11T01:20:17;42.38;;;12.07;;
28343;SDS011;15597;50.914;6.638;2022-12-11T01:22:44;24.73;;;10.02;;
28343;SDS011;15597;50.914;6.638;2022-12-11T01:25:09;30.88;;;10.68;;
28343;SDS011;15597;50.914;6.638;2022-12-11T01:27:35;26.73;;;9.50;;
28343;SDS011;15597;50.914;6.638;2022-12-11T01:30:02;33.03;;;12.68;;
28343;SDS011;15597;50.914;6.638;2022-12-11T01:32:32;34.53;;;12.32;;
28343;SDS011;15597;50.914;6.638;2022-12-11T01:34:59;35.45;;;12.43;;
28343;SDS011;15597;50.914;6.638;2022-12-11T01:37:26;34.50;;;11.18;;
28343;SDS011;15597;50.914;6.638;2022-12-11T01:39:52;23.85;;;9.57;;
28343;SDS011;15597;50.914;6.638;2022-12-11T01:42:18;30.48;;;11.27;;
28343;SDS011;15597;50.914;6.638;2022-12-11T01:47:10;29.10;;;10.63;;
28343;SDS011;15597;50.914;6.638;2022-12-11T01:49:36;35.25;;;11.63;;
28343;SDS011;15597;50.914;6.638;2022-12-11T01:54:36;35.38;;;12.27;;
28343;SDS011;15597;50.914;6.638;2022-12-11T01:57:02;35.38;;;12.10;;
28343;SDS011;15597;50.914;6.638;2022-12-11T01:59:31;23.60;;;9.57;;
28343;SDS011;15597;50.914;6.638;2022-12-11T02:02:03;22.77;;;8.85;;
28343;SDS011;15597;50.914;6.638;2022-12-11T02:04:32;27.77;;;10.70;;
28343;SDS011;15597;50.914;6.638;2022-12-11T02:07:00;28.77;;;9.95;;
28343;SDS011;15597;50.914;6.638;2022-12-11T02:09:28;23.30;;;9.43;;
28343;SDS011;15597;50.914;6.638;2022-12-11T02:17:15;23.95;;;9.45;;
28343;SDS011;15597;50.914;6.638;2022-12-11T02:25:30;25.23;;;9.52;;
28343;SDS011;15597;50.914;6.638;2022-12-11T02:28:06;26.88;;;9.25;;
28343;SDS011;15597;50.914;6.638;2022-12-11T02:30:33;24.92;;;9.45;;
28343;SDS011;15597;50.914;6.638;2022-12-11T02:33:04;24.92;;;9.50;;
28343;SDS011;15597;50.914;6.638;2022-12-11T02:35:33;20.70;;;8.63;;
28343;SDS011;15597;50.914;6.638;2022-12-11T02:38:03;26.23;;;10.02;;
28343;SDS011;15597;50.914;6.638;2022-12-11T02:40:34;20.58;;;8.27;;
28343;SDS011;15597;50.914;6.638;2022-12-11T02:43:03;24.02;;;9.32;;
28343;SDS011;15597;50.914;6.638;2022-12-11T02:45:32;22.30;;;9.02;;
28343;SDS011;15597;50.914;6.638;2022-12-11T02:47:59;20.33;;;8.57;;
28343;SDS011;15597;50.914;6.638;2022-12-11T02:50:28;22.35;;;9.10;;
28343;SDS011;15597;50.914;6.638;2022-12-11T02:52:54;20.58;;;7.95;;
28343;SDS011;15597;50.914;6.638;2022-12-11T02:55:21;23.27;;;9.10;;
28343;SDS011;15597;50.914;6.638;2022-12-11T02:57:51;26.48;;;9.63;;
28343;SDS011;15597;50.914;6.638;2022-12-11T03:00:24;19.75;;;7.97;;
28343;SDS011;15597;50.914;6.638;2022-12-11T03:02:49;27.83;;;9.50;;
28343;SDS011;15597;50.914;6.638;2022-12-11T03:05:15;22.23;;;8.98;;
28343;SDS011;15597;50.914;6.638;2022-12-11T03:07:41;24.38;;;8.75;;
28343;SDS011;15597;50.914;6.638;2022-12-11T03:10:09;20.17;;;8.40;;
28343;SDS011;15597;50.914;6.638;2022-12-11T03:15:04;23.80;;;8.90;;
28343;SDS011;15597;50.914;6.638;2022-12-11T03:20:30;23.45;;;9.52;;
28343;SDS011;15597;50.914;6.638;2022-12-11T03:23:21;18.50;;;7.78;;
28343;SDS011;15597;50.914;6.638;2022-12-11T03:25:58;20.42;;;7.90;;
28343;SDS011;15597;50.914;6.638;2022-12-11T03:30:56;20.58;;;8.85;;
28343;SDS011;15597;50.914;6.638;2022-12-11T03:33:38;24.08;;;9.05;;
28343;SDS011;15597;50.914;6.638;2022-12-11T03:36:07;22.05;;;8.00;;
28343;SDS011;15597;50.914;6.638;2022-12-11T03:38:38;23.13;;;8.27;;
28343;SDS011;15597;50.914;6.638;2022-12-11T03:41:08;24.42;;;8.63;;
28343;SDS011;15597;50.914;6.638;2022-12-11T03:43:36;21.83;;;7.95;;
28343;SDS011;15597;50.914;6.638;2022-12-11T03:46:03;18.33;;;7.10;;
28343;SDS011;15597;50.914;6.638;2022-12-11T03:48:30;27.33;;;9.80;;
28343;SDS011;15597;50.914;6.638;2022-12-11T03:51:00;23.02;;;9.23;;
28343;SDS011;15597;50.914;6.638;2022-12-11T03:53:29;27.13;;;9.25;;
28343;SDS011;15597;50.914;6.638;2022-12-11T03:55:56;21.60;;;8.60;;
28343;SDS011;15597;50.914;6.638;2022-12-11T03:58:24;17.48;;;7.50;;
28343;SDS011;15597;50.914;6.638;2022-12-11T04:00:50;26.30;;;9.35;;
28343;SDS011;15597;50.914;6.638;2022-12-11T04:03:15;20.48;;;7.78;;
28343;SDS011;15597;50.914;6.638;2022-12-11T04:05:46;19.40;;;7.47;;
28343;SDS011;15597;50.914;6.638;2022-12-11T04:08:13;21.27;;;8.40;;
28343;SDS011;15597;50.914;6.638;2022-12-11T04:10:39;25.33;;;8.85;;
28343;SDS011;15597;50.914;6.638;2022-12-11T04:13:06;23.20;;;8.75;;
28343;SDS011;15597;50.914;6.638;2022-12-11T04:15:32;22.80;;;8.88;;
28343;SDS011;15597;50.914;6.638;2022-12-11T04:17:58;25.55;;;9.63;;
28343;SDS011;15597;50.914;6.638;2022-12-11T04:20:42;20.58;;;7.80;;
28343;SDS011;15597;50.914;6.638;2022-12-11T04:23:26;21.45;;;7.82;;
28343;SDS011;15597;50.914;6.638;2022-12-11T04:26:12;25.88;;;9.30;;
28343;SDS011;15597;50.914;6.638;2022-12-11T04:28:40;27.30;;;8.70;;
28343;SDS011;15597;50.914;6.638;2022-12-11T04:31:09;20.83;;;7.90;;
28343;SDS011;15597;50.914;6.638;2022-12-11T04:33:43;18.85;;;7.65;;
28343;SDS011;15597;50.914;6.638;2022-12-11T04:36:09;19.75;;;8.68;;
28343;SDS011;15597;50.914;6.638;2022-12-11T04:38:35;21.23;;;8.40;;
28343;SDS011;15597;50.914;6.638;2022-12-11T04:41:03;24.58;;;9.15;;
28343;SDS011;15597;50.914;6.638;2022-12-11T04:43:30;24.98;;;9.23;;
28343;SDS011;15597;50.914;6.638;2022-12-11T04:48:53;20.45;;;7.80;;
28343;SDS011;15597;50.914;6.638;2022-12-11T04:51:19;18.17;;;7.70;;
28343;SDS011;15597;50.914;6.638;2022-12-11T04:53:45;24.70;;;8.55;;
28343;SDS011;15597;50.914;6.638;2022-12-11T04:56:11;27.17;;;10.65;;
28343;SDS011;15597;50.914;6.638;2022-12-11T05:01:18;23.05;;;8.68;;
28343;SDS011;15597;50.914;6.638;2022-12-11T05:03:46;22.48;;;9.23;;
28343;SDS011;15597;50.914;6.638;2022-12-11T05:06:11;17.60;;;7.65;;
28343;SDS011;15597;50.914;6.638;2022-12-11T05:08:38;20.65;;;8.43;;
28343;SDS011;15597;50.914;6.638;2022-12-11T05:11:06;21.75;;;7.63;;
28343;SDS011;15597;50.914;6.638;2022-12-11T05:13:34;17.27;;;7.53;;
28343;SDS011;15597;50.914;6.638;2022-12-11T05:16:02;26.00;;;8.82;;
28343;SDS011;15597;50.914;6.638;2022-12-11T05:18:29;23.17;;;8.60;;
28343;SDS011;15597;50.914;6.638;2022-12-11T05:20:55;21.70;;;8.35;;
28343;SDS011;15597;50.914;6.638;2022-12-11T05:23:22;23.65;;;8.55;;
28343;SDS011;15597;50.914;6.638;2022-12-11T05:25:51;22.33;;;8.73;;
28343;SDS011;15597;50.914;6.638;2022-12-11T05:28:17;19.88;;;8.25;;
28343;SDS011;15597;50.914;6.638;2022-12-11T05:30:43;16.73;;;6.68;;
28343;SDS011;15597;50.914;6.638;2022-12-11T05:33:08;22.95;;;7.78;;
28343;SDS011;15597;50.914;6.638;2022-12-11T05:35:34;23.25;;;8.75;;
28343;SDS011;15597;50.914;6.638;2022-12-11T05:37:59;19.02;;;6.97;;
28343;SDS011;15597;50.914;6.638;2022-12-11T05:40:25;27.08;;;9.18;;
28343;SDS011;15597;50.914;6.638;2022-12-11T05:42:51;24.70;;;8.18;;
28343;SDS011;15597;50.914;6.638;2022-12-11T05:45:16;14.43;;;6.32;;
28343;SDS011;15597;50.914;6.638;2022-12-11T05:47:42;21.33;;;7.97;;
28343;SDS011;15597;50.914;6.638;2022-12-11T05:50:07;23.20;;;8.88;;
28343;SDS011;15597;50.914;6.638;2022-12-11T05:52:33;22.88;;;7.97;;
28343;SDS011;15597;50.914;6.638;2022-12-11T05:54:59;18.08;;;6.57;;
28343;SDS011;15597;50.914;6.638;2022-12-11T05:57:24;21.83;;;8.35;;
28343;SDS011;15597;50.914;6.638;2022-12-11T05:59:50;15.30;;;6.32;;
28343;SDS011;15597;50.914;6.638;2022-12-11T06:02:15;21.67;;;8.35;;
28343;SDS011;15597;50.914;6.638;2022-12-11T06:04:41;19.92;;;8.00;;
28343;SDS011;15597;50.914;6.638;2022-12-11T06:07:06;19.73;;;8.40;;
28343;SDS011;15597;50.914;6.638;2022-12-11T06:09:32;24.00;;;8.38;;
28343;SDS011;15597;50.914;6.638;2022-12-11T06:11:57;18.58;;;8.23;;
28343;SDS011;15597;50.914;6.638;2022-12-11T06:14:23;19.35;;;8.00;;
28343;SDS011;15597;50.914;6.638;2022-12-11T06:16:48;17.67;;;7.05;;
28343;SDS011;15597;50.914;6.638;2022-12-11T06:19:14;22.00;;;8.07;;
28343;SDS011;15597;50.914;6.638;2022-12-11T06:21:42;15.50;;;6.68;;
28343;SDS011;15597;50.914;6.638;2022-12-11T06:24:09;20.27;;;7.72;;
28343;SDS011;15597;50.914;6.638;2022-12-11T06:26:35;16.02;;;6.30;;
28343;SDS011;15597;50.914;6.638;2022-12-11T06:29:00;20.33;;;7.63;;
28343;SDS011;15597;50.914;6.638;2022-12-11T06:31:26;18.83;;;7.72;;
28343;SDS011;15597;50.914;6.638;2022-12-11T06:33:51;16.27;;;6.68;;
28343;SDS011;15597;50.914;6.638;2022-12-11T06:36:20;16.88;;;6.75;;
28343;SDS011;15597;50.914;6.638;2022-12-11T06:38:47;17.85;;;6.63;;
28343;SDS011;15597;50.914;6.638;2022-12-11T06:41:13;18.65;;;7.38;;
28343;SDS011;15597;50.914;6.638;2022-12-11T06:43:40;18.60;;;7.35;;
28343;SDS011;15597;50.914;6.638;2022-12-11T06:46:11;17.77;;;7.38;;
28343;SDS011;15597;50.914;6.638;2022-12-11T06:48:38;18.02;;;7.10;;
28343;SDS011;15597;50.914;6.638;2022-12-11T06:51:10;19.88;;;8.02;;
28343;SDS011;15597;50.914;6.638;2022-12-11T06:53:37;21.05;;;7.35;;
28343;SDS011;15597;50.914;6.638;2022-12-11T06:56:12;23.33;;;9.05;;
28343;SDS011;15597;50.914;6.638;2022-12-11T06:58:39;22.65;;;8.43;;
28343;SDS011;15597;50.914;6.638;2022-12-11T07:01:25;20.50;;;8.55;;
28343;SDS011;15597;50.914;6.638;2022-12-11T07:03:55;22.92;;;9.00;;
28343;SDS011;15597;50.914;6.638;2022-12-11T07:06:22;20.80;;;8.23;;
28343;SDS011;15597;50.914;6.638;2022-12-11T07:08:49;16.83;;;7.45;;
28343;SDS011;15597;50.914;6.638;2022-12-11T07:11:15;20.13;;;7.97;;
28343;SDS011;15597;50.914;6.638;2022-12-11T07:13:42;15.15;;;6.43;;
28343;SDS011;15597;50.914;6.638;2022-12-11T07:16:08;17.52;;;7.63;;
28343;SDS011;15597;50.914;6.638;2022-12-11T07:18:36;22.50;;;8.50;;
28343;SDS011;15597;50.914;6.638;2022-12-11T07:21:06;15.90;;;6.75;;
28343;SDS011;15597;50.914;6.638;2022-12-11T07:23:34;18.20;;;7.32;;
28343;SDS011;15597;50.914;6.638;2022-12-11T07:26:03;15.35;;;6.32;;
28343;SDS011;15597;50.914;6.638;2022-12-11T07:28:39;15.27;;;5.95;;
28343;SDS011;15597;50.914;6.638;2022-12-11T07:31:08;15.07;;;6.20;;
28343;SDS011;15597;50.914;6.638;2022-12-11T07:33:36;16.30;;;6.80;;
28343;SDS011;15597;50.914;6.638;2022-12-11T07:36:02;13.32;;;5.68;;
28343;SDS011;15597;50.914;6.638;2022-12-11T07:38:29;18.05;;;7.05;;
28343;SDS011;15597;50.914;6.638;2022-12-11T07:40:54;19.65;;;7.55;;
28343;SDS011;15597;50.914;6.638;2022-12-11T07:43:20;18.50;;;8.60;;
28343;SDS011;15597;50.914;6.638;2022-12-11T07:45:45;18.85;;;7.60;;
28343;SDS011;15597;50.914;6.638;2022-12-11T07:48:12;19.30;;;6.72;;
28343;SDS011;15597;50.914;6.638;2022-12-11T07:50:37;18.80;;;7.28;;
28343;SDS011;15597;50.914;6.638;2022-12-11T07:53:03;18.65;;;7.53;;
28343;SDS011;15597;50.914;6.638;2022-12-11T07:55:28;17.00;;;6.80;;
28343;SDS011;15597;50.914;6.638;2022-12-11T07:57:54;16.45;;;6.68;;
28343;SDS011;15597;50.914;6.638;2022-12-11T08:00:20;19.13;;;7.22;;
28343;SDS011;15597;50.914;6.638;2022-12-11T08:02:45;20.63;;;8.55;;
28343;SDS011;15597;50.914;6.638;2022-12-11T08:05:11;20.83;;;9.32;;
28343;SDS011;15597;50.914;6.638;2022-12-11T08:07:37;19.15;;;9.40;;
28343;SDS011;15597;50.914;6.638;2022-12-11T08:10:03;19.52;;;8.13;;
28343;SDS011;15597;50.914;6.638;2022-12-11T08:12:29;20.30;;;8.35;;
28343;SDS011;15597;50.914;6.638;2022-12-11T08:14:55;19.45;;;8.15;;
28343;SDS011;15597;50.914;6.638;2022-12-11T08:17:20;22.30;;;9.48;;
28343;SDS011;15597;50.914;6.638;2022-12-11T08:19:46;23.50;;;9.45;;
28343;SDS011;15597;50.914;6.638;2022-12-11T08:22:11;22.75;;;8.43;;
28343;SDS011;15597;50.914;6.638;2022-12-11T08:24:38;22.08;;;9.02;;
28343;SDS011;15597;50.914;6.638;2022-12-11T08:27:04;18.60;;;8.00;;
28343;SDS011;15597;50.914;6.638;2022-12-11T08:29:30;19.70;;;8.10;;
28343;SDS011;15597;50.914;6.638;2022-12-11T08:31:56;24.42;;;9.68;;
28343;SDS011;15597;50.914;6.638;2022-12-11T08:34:21;21.00;;;8.75;;
28343;SDS011;15597;50.914;6.638;2022-12-11T08:36:47;22.83;;;9.20;;
28343;SDS011;15597;50.914;6.638;2022-12-11T08:39:12;22.48;;;8.82;;
28343;SDS011;15597;50.914;6.638;2022-12-11T08:41:38;20.70;;;8.52;;
28343;SDS011;15597;50.914;6.638;2022-12-11T08:44:04;21.17;;;8.70;;
28343;SDS011;15597;50.914;6.638;2022-12-11T08:46:30;23.38;;;9.57;;
28343;SDS011;15597;50.914;6.638;2022-12-11T08:48:56;23.27;;;8.95;;
28343;SDS011;15597;50.914;6.638;2022-12-11T08:51:23;22.75;;;8.50;;
28343;SDS011;15597;50.914;6.638;2022-12-11T08:53:52;20.75;;;8.32;;
28343;SDS011;15597;50.914;6.638;2022-12-11T08:56:19;21.55;;;9.00;;
28343;SDS011;15597;50.914;6.638;2022-12-11T08:58:45;22.80;;;9.77;;
28343;SDS011;15597;50.914;6.638;2022-12-11T09:01:15;21.95;;;8.82;;
28343;SDS011;15597;50.914;6.638;2022-12-11T09:03:43;19.75;;;8.30;;
28343;SDS011;15597;50.914;6.638;2022-12-11T09:06:10;22.02;;;9.38;;
28343;SDS011;15597;50.914;6.638;2022-12-11T09:08:37;23.05;;;8.98;;
28343;SDS011;15597;50.914;6.638;2022-12-11T09:11:07;27.40;;;10.98;;
28343;SDS011;15597;50.914;6.638;2022-12-11T09:13:37;23.13;;;9.30;;
28343;SDS011;15597;50.914;6.638;2022-12-11T09:16:04;21.25;;;8.98;;
28343;SDS011;15597;50.914;6.638;2022-12-11T09:18:31;26.77;;;10.18;;
28343;SDS011;15597;50.914;6.638;2022-12-11T09:20:58;22.05;;;8.77;;
28343;SDS011;15597;50.914;6.638;2022-12-11T09:23:27;24.42;;;9.77;;
28343;SDS011;15597;50.914;6.638;2022-12-11T09:25:53;24.13;;;9.55;;
28343;SDS011;15597;50.914;6.638;2022-12-11T09:28:19;24.85;;;9.52;;
28343;SDS011;15597;50.914;6.638;2022-12-11T09:30:45;27.67;;;10.02;;
28343;SDS011;15597;50.914;6.638;2022-12-11T09:33:11;23.60;;;9.27;;
28343;SDS011;15597;50.914;6.638;2022-12-11T09:35:36;23.08;;;7.65;;
28343;SDS011;15597;50.914;6.638;2022-12-11T09:38:02;24.20;;;9.98;;
28343;SDS011;15597;50.914;6.638;2022-12-11T09:40:28;28.80;;;11.20;;
28343;SDS011;15597;50.914;6.638;2022-12-11T09:43:05;28.20;;;11.02;;
28343;SDS011;15597;50.914;6.638;2022-12-11T09:45:43;25.25;;;9.65;;
28343;SDS011;15597;50.914;6.638;2022-12-11T09:48:08;24.42;;;10.18;;
28343;SDS011;15597;50.914;6.638;2022-12-11T09:50:36;26.40;;;9.40;;
28343;SDS011;15597;50.914;6.638;2022-12-11T09:53:08;28.27;;;10.50;;
28343;SDS011;15597;50.914;6.638;2022-12-11T09:56:26;28.13;;;11.00;;
28343;SDS011;15597;50.914;6.638;2022-12-11T10:01:30;29.20;;;10.10;;
28343;SDS011;15597;50.914;6.638;2022-12-11T10:06:39;26.88;;;10.18;;
28343;SDS011;15597;50.914;6.638;2022-12-11T10:11:53;28.38;;;10.73;;
28343;SDS011;15597;50.914;6.638;2022-12-11T10:14:53;27.55;;;10.13;;
28343;SDS011;15597;50.914;6.638;2022-12-11T10:17:30;28.90;;;10.65;;
28343;SDS011;15597;50.914;6.638;2022-12-11T10:20:00;28.98;;;11.07;;
28343;SDS011;15597;50.914;6.638;2022-12-11T10:22:39;30.52;;;10.77;;
28343;SDS011;15597;50.914;6.638;2022-12-11T10:25:06;27.00;;;9.98;;
28343;SDS011;15597;50.914;6.638;2022-12-11T10:27:38;29.60;;;10.82;;
28343;SDS011;15597;50.914;6.638;2022-12-11T10:30:15;26.08;;;9.93;;
28343;SDS011;15597;50.914;6.638;2022-12-11T10:35:30;28.38;;;10.32;;
28343;SDS011;15597;50.914;6.638;2022-12-11T10:38:10;25.35;;;9.77;;
28343;SDS011;15597;50.914;6.638;2022-12-11T10:40:40;24.00;;;9.73;;
28343;SDS011;15597;50.914;6.638;2022-12-11T10:43:09;26.40;;;10.32;;
28343;SDS011;15597;50.914;6.638;2022-12-11T10:45:35;30.50;;;10.63;;
28343;SDS011;15597;50.914;6.638;2022-12-11T10:48:02;29.10;;;11.13;;
28343;SDS011;15597;50.914;6.638;2022-12-11T10:52:56;27.08;;;10.27;;
28343;SDS011;15597;50.914;6.638;2022-12-11T10:55:30;31.23;;;11.27;;
28343;SDS011;15597;50.914;6.638;2022-12-11T10:58:11;25.33;;;10.02;;
28343;SDS011;15597;50.914;6.638;2022-12-11T11:00:42;26.00;;;10.30;;
28343;SDS011;15597;50.914;6.638;2022-12-11T11:03:22;28.70;;;10.48;;
28343;SDS011;15597;50.914;6.638;2022-12-11T11:06:00;27.50;;;10.00;;
28343;SDS011;15597;50.914;6.638;2022-12-11T11:08:41;28.70;;;11.18;;
28343;SDS011;15597;50.914;6.638;2022-12-11T11:11:20;25.92;;;9.90;;
28343;SDS011;15597;50.914;6.638;2022-12-11T11:13:48;28.35;;;10.10;;
28343;SDS011;15597;50.914;6.638;2022-12-11T11:16:14;29.02;;;10.85;;
28343;SDS011;15597;50.914;6.638;2022-12-11T11:18:48;27.25;;;10.35;;
28343;SDS011;15597;50.914;6.638;2022-12-11T11:21:18;27.05;;;10.13;;
28343;SDS011;15597;50.914;6.638;2022-12-11T11:23:45;30.33;;;10.65;;
28343;SDS011;15597;50.914;6.638;2022-12-11T11:26:11;31.55;;;11.23;;
28343;SDS011;15597;50.914;6.638;2022-12-11T11:28:41;32.97;;;12.18;;
28343;SDS011;15597;50.914;6.638;2022-12-11T11:31:13;30.00;;;10.60;;
28343;SDS011;15597;50.914;6.638;2022-12-11T11:33:50;26.83;;;10.50;;
28343;SDS011;15597;50.914;6.638;2022-12-11T11:36:24;26.65;;;10.23;;
28343;SDS011;15597;50.914;6.638;2022-12-11T11:41:28;25.95;;;9.50;;
28343;SDS011;15597;50.914;6.638;2022-12-11T11:44:03;28.17;;;11.07;;
28343;SDS011;15597;50.914;6.638;2022-12-11T11:46:33;30.00;;;11.05;;
28343;SDS011;15597;50.914;6.638;2022-12-11T11:51:51;26.40;;;10.25;;
28343;SDS011;15597;50.914;6.638;2022-12-11T11:57:12;47.95;;;17.55;;
28343;SDS011;15597;50.914;6.638;2022-12-11T12:00:07;32.03;;;12.18;;
28343;SDS011;15597;50.914;6.638;2022-12-11T12:02:39;29.98;;;11.50;;
28343;SDS011;15597;50.914;6.638;2022-12-11T12:05:08;31.25;;;11.18;;
28343;SDS011;15597;50.914;6.638;2022-12-11T12:10:25;28.27;;;10.90;;
28343;SDS011;15597;50.914;6.638;2022-12-11T12:13:26;29.73;;;10.57;;
28343;SDS011;15597;50.914;6.638;2022-12-11T12:15:57;29.75;;;10.13;;
28343;SDS011;15597;50.914;6.638;2022-12-11T12:21:18;31.58;;;11.10;;
28343;SDS011;15597;50.914;6.638;2022-12-11T12:26:40;50.55;;;17.90;;
28343;SDS011;15597;50.914;6.638;2022-12-11T12:29:41;29.42;;;11.20;;
28343;SDS011;15597;50.914;6.638;2022-12-11T12:35:04;30.95;;;11.93;;
28343;SDS011;15597;50.914;6.638;2022-12-11T12:37:56;27.58;;;11.20;;
28343;SDS011;15597;50.914;6.638;2022-12-11T12:46:13;35.35;;;12.52;;
28343;SDS011;15597;50.914;6.638;2022-12-11T12:48:45;32.60;;;12.02;;
28343;SDS011;15597;50.914;6.638;2022-12-11T12:51:12;31.40;;;12.40;;
28343;SDS011;15597;50.914;6.638;2022-12-11T12:53:39;30.90;;;11.38;;
28343;SDS011;15597;50.914;6.638;2022-12-11T12:56:10;30.83;;;11.73;;
28343;SDS011;15597;50.914;6.638;2022-12-11T12:58:40;27.40;;;11.05;;
28343;SDS011;15597;50.914;6.638;2022-12-11T13:01:28;32.75;;;11.90;;
28343;SDS011;15597;50.914;6.638;2022-12-11T13:06:28;29.75;;;11.05;;
28343;SDS011;15597;50.914;6.638;2022-12-11T13:08:54;31.90;;;11.27;;
28343;SDS011;15597;50.914;6.638;2022-12-11T13:11:20;30.02;;;11.82;;
28343;SDS011;15597;50.914;6.638;2022-12-11T13:14:04;30.50;;;11.75;;
28343;SDS011;15597;50.914;6.638;2022-12-11T13:16:48;29.30;;;10.80;;
28343;SDS011;15597;50.914;6.638;2022-12-11T13:24:44;31.85;;;11.38;;
28343;SDS011;15597;50.914;6.638;2022-12-11T13:27:23;42.88;;;13.75;;
28343;SDS011;15597;50.914;6.638;2022-12-11T13:30:19;39.13;;;13.82;;
28343;SDS011;15597;50.914;6.638;2022-12-11T13:35:27;99.97;;;30.80;;
28343;SDS011;15597;50.914;6.638;2022-12-11T13:37:54;35.03;;;12.55;;
28343;SDS011;15597;50.914;6.638;2022-12-11T13:40:25;34.85;;;12.52;;
28343;SDS011;15597;50.914;6.638;2022-12-11T13:43:01;33.08;;;11.80;;
28343;SDS011;15597;50.914;6.638;2022-12-11T13:45:39;32.42;;;12.50;;
28343;SDS011;15597;50.914;6.638;2022-12-11T13:48:12;33.33;;;11.40;;
28343;SDS011;15597;50.914;6.638;2022-12-11T13:50:43;32.72;;;12.50;;
28343;SDS011;15597;50.914;6.638;2022-12-11T13:53:14;31.88;;;11.80;;
28343;SDS011;15597;50.914;6.638;2022-12-11T13:55:41;32.40;;;12.45;;
28343;SDS011;15597;50.914;6.638;2022-12-11T13:58:14;31.23;;;11.68;;
28343;SDS011;15597;50.914;6.638;2022-12-11T14:00:41;33.97;;;13.73;;
28343;SDS011;15597;50.914;6.638;2022-12-11T14:03:06;33.25;;;12.32;;
28343;SDS011;15597;50.914;6.638;2022-12-11T14:05:32;31.67;;;11.80;;
28343;SDS011;15597;50.914;6.638;2022-12-11T14:08:04;33.47;;;12.85;;
28343;SDS011;15597;50.914;6.638;2022-12-11T14:10:35;32.20;;;12.30;;
28343;SDS011;15597;50.914;6.638;2022-12-11T14:13:05;37.75;;;13.35;;
28343;SDS011;15597;50.914;6.638;2022-12-11T14:15:38;39.92;;;12.27;;
28343;SDS011;15597;50.914;6.638;2022-12-11T14:18:12;35.63;;;12.98;;
28343;SDS011;15597;50.914;6.638;2022-12-11T14:20:42;36.35;;;13.75;;
28343;SDS011;15597;50.914;6.638;2022-12-11T14:23:15;33.03;;;12.75;;
28343;SDS011;15597;50.914;6.638;2022-12-11T14:25:50;32.72;;;13.02;;
28343;SDS011;15597;50.914;6.638;2022-12-11T14:28:17;33.33;;;13.25;;
28343;SDS011;15597;50.914;6.638;2022-12-11T14:30:49;35.95;;;13.05;;
28343;SDS011;15597;50.914;6.638;2022-12-11T14:33:16;31.42;;;13.18;;
28343;SDS011;15597;50.914;6.638;2022-12-11T14:35:46;32.72;;;13.02;;
28343;SDS011;15597;50.914;6.638;2022-12-11T14:38:26;29.52;;;12.57;;
28343;SDS011;15597;50.914;6.638;2022-12-11T14:40:58;27.75;;;12.38;;
28343;SDS011;15597;50.914;6.638;2022-12-11T14:43:41;31.48;;;13.13;;
28343;SDS011;15597;50.914;6.638;2022-12-11T14:46:12;29.20;;;12.07;;
28343;SDS011;15597;50.914;6.638;2022-12-11T14:48:43;30.40;;;11.75;;
28343;SDS011;15597;50.914;6.638;2022-12-11T14:51:16;30.67;;;12.15;;
28343;SDS011;15597;50.914;6.638;2022-12-11T14:53:45;32.08;;;12.13;;
28343;SDS011;15597;50.914;6.638;2022-12-11T14:56:16;24.38;;;10.57;;
28343;SDS011;15597;50.914;6.638;2022-12-11T14:58:56;26.55;;;11.50;;
28343;SDS011;15597;50.914;6.638;2022-12-11T15:01:28;32.03;;;12.52;;
28343;SDS011;15597;50.914;6.638;2022-12-11T15:04:06;28.33;;;11.65;;
28343;SDS011;15597;50.914;6.638;2022-12-11T15:06:47;30.08;;;10.73;;
28343;SDS011;15597;50.914;6.638;2022-12-11T15:11:42;30.38;;;11.70;;
28343;SDS011;15597;50.914;6.638;2022-12-11T15:14:08;27.45;;;10.65;;
28343;SDS011;15597;50.914;6.638;2022-12-11T15:16:37;30.77;;;11.60;;
28343;SDS011;15597;50.914;6.638;2022-12-11T15:19:05;26.13;;;11.30;;
28343;SDS011;15597;50.914;6.638;2022-12-11T15:21:32;25.85;;;10.38;;
28343;SDS011;15597;50.914;6.638;2022-12-11T15:24:01;29.77;;;11.77;;
28343;SDS011;15597;50.914;6.638;2022-12-11T15:26:32;24.67;;;10.23;;
28343;SDS011;15597;50.914;6.638;2022-12-11T15:29:01;26.73;;;10.45;;
28343;SDS011;15597;50.914;6.638;2022-12-11T15:31:30;28.58;;;10.85;;
28343;SDS011;15597;50.914;6.638;2022-12-11T15:33:58;26.75;;;9.98;;
28343;SDS011;15597;50.914;6.638;2022-12-11T15:38:51;23.48;;;9.88;;
28343;SDS011;15597;50.914;6.638;2022-12-11T15:41:18;23.52;;;9.75;;
28343;SDS011;15597;50.914;6.638;2022-12-11T15:43:45;21.63;;;9.93;;
28343;SDS011;15597;50.914;6.638;2022-12-11T15:46:12;26.75;;;10.90;;
28343;SDS011;15597;50.914;6.638;2022-12-11T15:48:38;23.17;;;10.07;;
28343;SDS011;15597;50.914;6.638;2022-12-11T15:51:03;27.33;;;11.00;;
28343;SDS011;15597;50.914;6.638;2022-12-11T15:53:29;26.40;;;11.15;;
28343;SDS011;15597;50.914;6.638;2022-12-11T15:55:55;24.13;;;9.70;;
28343;SDS011;15597;50.914;6.638;2022-12-11T15:58:22;24.48;;;10.32;;
28343;SDS011;15597;50.914;6.638;2022-12-11T16:00:49;24.55;;;9.95;;
28343;SDS011;15597;50.914;6.638;2022-12-11T16:03:16;23.88;;;10.05;;
28343;SDS011;15597;50.914;6.638;2022-12-11T16:05:42;28.13;;;10.95;;